sensor_id;sensor_type;location;lat;lon;timestamp;temperature;humidity
2030;DHT22;1020;48.854;8.830;2022-09-27T00:01:21;9.30;99.90
2030;DHT22;1020;48.854;8.830;2022-09-27T00:03:52;9.30;99.90
2030;DHT22;1020;48.854;8.830;2022-09-27T00:06:22;9.20;99.90
2030;DHT22;1020;48.854;8.830;2022-09-27T00:08:49;9.20;99.90
2030;DHT22;1020;48.854;8.830;2022-09-27T00:11:22;9.10;99.90
2030;DHT22;1020;48.854;8.830;2022-09-27T00:13:49;9.10;99.90
2030;DHT22;1020;48.854;8.830;2022-09-27T00:18:44;9.10;99.90
2030;DHT22;1020;48.854;8.830;2022-09-27T00:21:13;9.10;99.90
2030;DHT22;1020;48.854;8.830;2022-09-27T00:23:40;9.10;99.90
2030;DHT22;1020;48.854;8.830;2022-09-27T00:26:07;9.10;99.90
2030;DHT22;1020;48.854;8.830;2022-09-27T00:28:36;9.20;99.90
2030;DHT22;1020;48.854;8.830;2022-09-27T00:31:04;9.10;99.90
2030;DHT22;1020;48.854;8.830;2022-09-27T00:33:36;9.20;99.90
2030;DHT22;1020;48.854;8.830;2022-09-27T00:36:04;9.20;99.90
2030;DHT22;1020;48.854;8.830;2022-09-27T00:38:32;9.10;99.90
2030;DHT22;1020;48.854;8.830;2022-09-27T00:40:59;9.10;99.90
2030;DHT22;1020;48.854;8.830;2022-09-27T00:43:40;9.10;99.90
2030;DHT22;1020;48.854;8.830;2022-09-27T00:46:08;9.10;99.90
2030;DHT22;1020;48.854;8.830;2022-09-27T00:48:35;9.10;99.90
2030;DHT22;1020;48.854;8.830;2022-09-27T00:51:04;9.10;99.90
2030;DHT22;1020;48.854;8.830;2022-09-27T00:53:38;9.10;99.90
2030;DHT22;1020;48.854;8.830;2022-09-27T00:56:09;9.10;99.90
2030;DHT22;1020;48.854;8.830;2022-09-27T00:58:41;9.10;99.90
2030;DHT22;1020;48.854;8.830;2022-09-27T01:01:10;9.10;99.90
2030;DHT22;1020;48.854;8.830;2022-09-27T01:03:41;9.20;99.90
2030;DHT22;1020;48.854;8.830;2022-09-27T01:06:09;9.20;99.90
2030;DHT22;1020;48.854;8.830;2022-09-27T01:08:38;9.20;99.90
2030;DHT22;1020;48.854;8.830;2022-09-27T01:11:13;9.20;99.90
2030;DHT22;1020;48.854;8.830;2022-09-27T01:13:48;9.20;99.90
2030;DHT22;1020;48.854;8.830;2022-09-27T01:16:26;9.20;99.90
2030;DHT22;1020;48.854;8.830;2022-09-27T01:19:03;9.30;99.90
2030;DHT22;1020;48.854;8.830;2022-09-27T01:21:40;9.30;99.90
2030;DHT22;1020;48.854;8.830;2022-09-27T01:24:29;9.30;99.90
2030;DHT22;1020;48.854;8.830;2022-09-27T01:27:36;9.30;99.90
2030;DHT22;1020;48.854;8.830;2022-09-27T01:30:19;9.30;99.90
2030;DHT22;1020;48.854;8.830;2022-09-27T01:32:51;9.30;99.90
2030;DHT22;1020;48.854;8.830;2022-09-27T01:35:26;9.40;99.90
2030;DHT22;1020;48.854;8.830;2022-09-27T01:38:02;9.40;99.90
2030;DHT22;1020;48.854;8.830;2022-09-27T01:40:37;9.30;99.90
2030;DHT22;1020;48.854;8.830;2022-09-27T01:43:08;9.30;99.90
2030;DHT22;1020;48.854;8.830;2022-09-27T01:45:42;9.20;99.90
2030;DHT22;1020;48.854;8.830;2022-09-27T01:48:15;9.20;99.90
2030;DHT22;1020;48.854;8.830;2022-09-27T01:50:47;9.20;99.90
2030;DHT22;1020;48.854;8.830;2022-09-27T01:53:18;9.20;99.90
2030;DHT22;1020;48.854;8.830;2022-09-27T01:55:47;9.10;99.90
2030;DHT22;1020;48.854;8.830;2022-09-27T01:58:18;9.10;99.90
2030;DHT22;1020;48.854;8.830;2022-09-27T02:00:50;9.10;99.90
2030;DHT22;1020;48.854;8.830;2022-09-27T02:03:21;9.00;99.90
2030;DHT22;1020;48.854;8.830;2022-09-27T02:05:51;9.00;99.90
2030;DHT22;1020;48.854;8.830;2022-09-27T02:08:22;8.90;99.90
2030;DHT22;1020;48.854;8.830;2022-09-27T02:10:54;8.80;99.90
2030;DHT22;1020;48.854;8.830;2022-09-27T02:13:26;8.70;99.90
2030;DHT22;1020;48.854;8.830;2022-09-27T02:16:03;8.60;99.90
2030;DHT22;1020;48.854;8.830;2022-09-27T02:18:35;8.60;99.90
2030;DHT22;1020;48.854;8.830;2022-09-27T02:21:07;8.50;99.90
2030;DHT22;1020;48.854;8.830;2022-09-27T02:23:42;8.40;99.90
2030;DHT22;1020;48.854;8.830;2022-09-27T02:26:14;8.40;99.90
2030;DHT22;1020;48.854;8.830;2022-09-27T02:28:44;8.40;99.90
2030;DHT22;1020;48.854;8.830;2022-09-27T02:31:15;8.40;99.90
2030;DHT22;1020;48.854;8.830;2022-09-27T02:33:45;8.30;99.90
2030;DHT22;1020;48.854;8.830;2022-09-27T02:36:12;8.30;99.90
2030;DHT22;1020;48.854;8.830;2022-09-27T02:38:40;8.20;99.90
2030;DHT22;1020;48.854;8.830;2022-09-27T02:41:12;8.20;99.90
2030;DHT22;1020;48.854;8.830;2022-09-27T02:43:40;8.20;99.90
2030;DHT22;1020;48.854;8.830;2022-09-27T02:46:21;8.10;99.90
2030;DHT22;1020;48.854;8.830;2022-09-27T02:48:56;8.10;99.90
2030;DHT22;1020;48.854;8.830;2022-09-27T02:51:36;8.10;99.90
2030;DHT22;1020;48.854;8.830;2022-09-27T02:54:14;8.10;99.90
2030;DHT22;1020;48.854;8.830;2022-09-27T02:56:49;8.20;99.90
2030;DHT22;1020;48.854;8.830;2022-09-27T02:59:26;8.30;99.90
2030;DHT22;1020;48.854;8.830;2022-09-27T03:02:03;8.30;99.90
2030;DHT22;1020;48.854;8.830;2022-09-27T03:04:36;8.30;99.90
2030;DHT22;1020;48.854;8.830;2022-09-27T03:07:04;8.30;99.90
2030;DHT22;1020;48.854;8.830;2022-09-27T03:09:40;8.30;99.90
2030;DHT22;1020;48.854;8.830;2022-09-27T03:12:07;8.40;99.90
2030;DHT22;1020;48.854;8.830;2022-09-27T03:14:34;8.40;99.90
2030;DHT22;1020;48.854;8.830;2022-09-27T03:17:02;8.40;99.90
2030;DHT22;1020;48.854;8.830;2022-09-27T03:19:28;8.40;99.90
2030;DHT22;1020;48.854;8.830;2022-09-27T03:21:55;8.50;99.90
2030;DHT22;1020;48.854;8.830;2022-09-27T03:24:22;8.50;99.90
2030;DHT22;1020;48.854;8.830;2022-09-27T03:26:48;8.50;99.90
2030;DHT22;1020;48.854;8.830;2022-09-27T03:29:15;8.50;99.90
2030;DHT22;1020;48.854;8.830;2022-09-27T03:31:42;8.50;99.90
2030;DHT22;1020;48.854;8.830;2022-09-27T03:34:10;8.50;99.90
2030;DHT22;1020;48.854;8.830;2022-09-27T03:36:37;8.50;99.90
2030;DHT22;1020;48.854;8.830;2022-09-27T03:39:03;8.60;99.90
2030;DHT22;1020;48.854;8.830;2022-09-27T03:41:30;8.60;99.90
2030;DHT22;1020;48.854;8.830;2022-09-27T03:43:57;8.60;99.90
2030;DHT22;1020;48.854;8.830;2022-09-27T03:46:24;8.60;99.90
2030;DHT22;1020;48.854;8.830;2022-09-27T03:48:51;8.50;99.90
2030;DHT22;1020;48.854;8.830;2022-09-27T03:51:20;8.60;99.90
2030;DHT22;1020;48.854;8.830;2022-09-27T03:53:46;8.60;99.90
2030;DHT22;1020;48.854;8.830;2022-09-27T03:56:14;8.50;99.90
2030;DHT22;1020;48.854;8.830;2022-09-27T03:58:40;8.50;99.90
2030;DHT22;1020;48.854;8.830;2022-09-27T04:01:07;8.50;99.90
2030;DHT22;1020;48.854;8.830;2022-09-27T04:03:34;8.50;99.90
2030;DHT22;1020;48.854;8.830;2022-09-27T04:06:02;8.50;99.90
2030;DHT22;1020;48.854;8.830;2022-09-27T04:08:30;8.50;99.90
2030;DHT22;1020;48.854;8.830;2022-09-27T04:10:56;8.50;99.90
2030;DHT22;1020;48.854;8.830;2022-09-27T04:13:23;8.50;99.90
2030;DHT22;1020;48.854;8.830;2022-09-27T04:15:50;8.50;99.90
2030;DHT22;1020;48.854;8.830;2022-09-27T04:18:17;8.50;99.90
2030;DHT22;1020;48.854;8.830;2022-09-27T04:20:43;8.50;99.90
2030;DHT22;1020;48.854;8.830;2022-09-27T04:23:10;8.50;99.90
2030;DHT22;1020;48.854;8.830;2022-09-27T04:25:38;8.60;99.90
2030;DHT22;1020;48.854;8.830;2022-09-27T04:28:05;8.60;99.90
2030;DHT22;1020;48.854;8.830;2022-09-27T04:30:32;8.50;99.90
2030;DHT22;1020;48.854;8.830;2022-09-27T04:32:59;8.50;99.90
2030;DHT22;1020;48.854;8.830;2022-09-27T04:35:25;8.40;99.90
2030;DHT22;1020;48.854;8.830;2022-09-27T04:38:10;8.40;99.90
2030;DHT22;1020;48.854;8.830;2022-09-27T04:40:39;8.40;99.90
2030;DHT22;1020;48.854;8.830;2022-09-27T04:43:06;8.30;99.90
2030;DHT22;1020;48.854;8.830;2022-09-27T04:45:34;8.30;99.90
2030;DHT22;1020;48.854;8.830;2022-09-27T04:48:01;8.30;99.90
2030;DHT22;1020;48.854;8.830;2022-09-27T04:50:27;8.30;99.90
2030;DHT22;1020;48.854;8.830;2022-09-27T04:52:54;8.30;99.90
2030;DHT22;1020;48.854;8.830;2022-09-27T04:55:21;8.30;99.90
2030;DHT22;1020;48.854;8.830;2022-09-27T04:57:49;8.30;99.90
2030;DHT22;1020;48.854;8.830;2022-09-27T05:00:16;8.30;99.90
2030;DHT22;1020;48.854;8.830;2022-09-27T05:02:43;8.30;99.90
2030;DHT22;1020;48.854;8.830;2022-09-27T05:05:10;8.30;99.90
2030;DHT22;1020;48.854;8.830;2022-09-27T05:07:37;8.30;99.90
2030;DHT22;1020;48.854;8.830;2022-09-27T05:10:05;8.20;99.90
2030;DHT22;1020;48.854;8.830;2022-09-27T05:12:32;8.20;99.90
2030;DHT22;1020;48.854;8.830;2022-09-27T05:15:00;8.10;99.90
2030;DHT22;1020;48.854;8.830;2022-09-27T05:17:28;8.10;99.90
2030;DHT22;1020;48.854;8.830;2022-09-27T05:19:54;8.10;99.90
2030;DHT22;1020;48.854;8.830;2022-09-27T05:22:21;8.00;99.90
2030;DHT22;1020;48.854;8.830;2022-09-27T05:24:48;8.00;99.90
2030;DHT22;1020;48.854;8.830;2022-09-27T05:27:15;8.00;99.90
2030;DHT22;1020;48.854;8.830;2022-09-27T05:29:45;8.00;99.90
2030;DHT22;1020;48.854;8.830;2022-09-27T05:32:13;8.00;99.90
2030;DHT22;1020;48.854;8.830;2022-09-27T05:34:40;8.00;99.90
2030;DHT22;1020;48.854;8.830;2022-09-27T05:37:07;8.00;99.90
2030;DHT22;1020;48.854;8.830;2022-09-27T05:39:33;8.00;99.90
2030;DHT22;1020;48.854;8.830;2022-09-27T05:42:00;8.00;99.90
2030;DHT22;1020;48.854;8.830;2022-09-27T05:44:29;8.00;99.90
2030;DHT22;1020;48.854;8.830;2022-09-27T05:46:56;8.00;99.90
2030;DHT22;1020;48.854;8.830;2022-09-27T05:49:25;8.00;99.90
2030;DHT22;1020;48.854;8.830;2022-09-27T05:51:52;8.00;99.90
2030;DHT22;1020;48.854;8.830;2022-09-27T05:54:18;7.90;99.90
2030;DHT22;1020;48.854;8.830;2022-09-27T05:56:45;7.90;99.90
2030;DHT22;1020;48.854;8.830;2022-09-27T05:59:12;7.90;99.90
2030;DHT22;1020;48.854;8.830;2022-09-27T06:01:39;7.90;99.90
2030;DHT22;1020;48.854;8.830;2022-09-27T06:04:05;7.80;99.90
2030;DHT22;1020;48.854;8.830;2022-09-27T06:06:36;7.80;99.90
2030;DHT22;1020;48.854;8.830;2022-09-27T06:09:03;7.80;99.90
2030;DHT22;1020;48.854;8.830;2022-09-27T06:11:29;7.80;99.90
2030;DHT22;1020;48.854;8.830;2022-09-27T06:13:56;7.80;99.90
2030;DHT22;1020;48.854;8.830;2022-09-27T06:16:24;7.90;99.90
2030;DHT22;1020;48.854;8.830;2022-09-27T06:18:51;7.90;99.90
2030;DHT22;1020;48.854;8.830;2022-09-27T06:21:18;7.90;99.90
2030;DHT22;1020;48.854;8.830;2022-09-27T06:23:46;7.90;99.90
2030;DHT22;1020;48.854;8.830;2022-09-27T06:26:13;7.80;99.90
2030;DHT22;1020;48.854;8.830;2022-09-27T06:28:40;7.70;99.90
2030;DHT22;1020;48.854;8.830;2022-09-27T06:31:07;7.70;99.90
2030;DHT22;1020;48.854;8.830;2022-09-27T06:33:36;7.70;99.90
2030;DHT22;1020;48.854;8.830;2022-09-27T06:36:04;7.60;99.90
2030;DHT22;1020;48.854;8.830;2022-09-27T06:38:31;7.60;99.90
2030;DHT22;1020;48.854;8.830;2022-09-27T06:41:02;7.50;99.90
2030;DHT22;1020;48.854;8.830;2022-09-27T06:43:31;7.50;99.90
2030;DHT22;1020;48.854;8.830;2022-09-27T06:45:58;7.50;99.90
2030;DHT22;1020;48.854;8.830;2022-09-27T06:48:29;7.50;99.90
2030;DHT22;1020;48.854;8.830;2022-09-27T06:50:56;7.50;99.90
2030;DHT22;1020;48.854;8.830;2022-09-27T06:53:23;7.50;99.90
2030;DHT22;1020;48.854;8.830;2022-09-27T06:55:51;7.50;99.90
2030;DHT22;1020;48.854;8.830;2022-09-27T06:58:19;7.50;99.90
2030;DHT22;1020;48.854;8.830;2022-09-27T07:01:03;7.60;99.90
2030;DHT22;1020;48.854;8.830;2022-09-27T07:03:30;7.60;99.90
2030;DHT22;1020;48.854;8.830;2022-09-27T07:05:59;7.60;99.90
2030;DHT22;1020;48.854;8.830;2022-09-27T07:08:26;7.60;99.90
2030;DHT22;1020;48.854;8.830;2022-09-27T07:10:54;7.60;99.90
2030;DHT22;1020;48.854;8.830;2022-09-27T07:13:22;7.60;99.90
2030;DHT22;1020;48.854;8.830;2022-09-27T07:15:51;7.60;99.90
2030;DHT22;1020;48.854;8.830;2022-09-27T07:18:17;7.70;99.90
2030;DHT22;1020;48.854;8.830;2022-09-27T07:20:45;7.70;99.90
2030;DHT22;1020;48.854;8.830;2022-09-27T07:23:13;7.80;99.90
2030;DHT22;1020;48.854;8.830;2022-09-27T07:25:40;7.90;99.90
2030;DHT22;1020;48.854;8.830;2022-09-27T07:28:11;7.90;99.90
2030;DHT22;1020;48.854;8.830;2022-09-27T07:30:40;5.90;99.90
2030;DHT22;1020;48.854;8.830;2022-09-27T07:33:08;8.00;99.90
2030;DHT22;1020;48.854;8.830;2022-09-27T07:35:37;8.10;99.90
2030;DHT22;1020;48.854;8.830;2022-09-27T07:38:05;8.40;99.90
2030;DHT22;1020;48.854;8.830;2022-09-27T07:40:33;8.50;99.90
2030;DHT22;1020;48.854;8.830;2022-09-27T07:43:01;8.70;99.90
2030;DHT22;1020;48.854;8.830;2022-09-27T07:45:28;8.70;99.90
2030;DHT22;1020;48.854;8.830;2022-09-27T07:47:57;8.70;99.90
2030;DHT22;1020;48.854;8.830;2022-09-27T07:50:24;8.60;99.90
2030;DHT22;1020;48.854;8.830;2022-09-27T07:52:51;8.60;99.90
2030;DHT22;1020;48.854;8.830;2022-09-27T07:55:18;10.80;99.90
2030;DHT22;1020;48.854;8.830;2022-09-27T07:57:45;8.50;99.90
2030;DHT22;1020;48.854;8.830;2022-09-27T08:00:14;8.80;99.90
2030;DHT22;1020;48.854;8.830;2022-09-27T08:02:41;9.20;99.90
2030;DHT22;1020;48.854;8.830;2022-09-27T08:05:11;9.60;99.90
2030;DHT22;1020;48.854;8.830;2022-09-27T08:07:39;9.50;99.90
2030;DHT22;1020;48.854;8.830;2022-09-27T08:10:07;9.40;99.90
2030;DHT22;1020;48.854;8.830;2022-09-27T08:12:34;9.80;99.90
2030;DHT22;1020;48.854;8.830;2022-09-27T08:15:01;10.00;99.90
2030;DHT22;1020;48.854;8.830;2022-09-27T08:17:29;10.10;99.90
2030;DHT22;1020;48.854;8.830;2022-09-27T08:19:56;9.90;99.90
2030;DHT22;1020;48.854;8.830;2022-09-27T08:22:24;9.70;99.90
2030;DHT22;1020;48.854;8.830;2022-09-27T08:24:51;9.70;99.90
2030;DHT22;1020;48.854;8.830;2022-09-27T08:27:17;9.60;99.90
2030;DHT22;1020;48.854;8.830;2022-09-27T08:29:44;9.50;99.90
2030;DHT22;1020;48.854;8.830;2022-09-27T08:32:12;11.40;99.90
2030;DHT22;1020;48.854;8.830;2022-09-27T08:34:39;9.20;99.90
2030;DHT22;1020;48.854;8.830;2022-09-27T08:37:06;9.10;99.90
2030;DHT22;1020;48.854;8.830;2022-09-27T08:39:34;9.20;99.90
2030;DHT22;1020;48.854;8.830;2022-09-27T08:42:05;9.00;99.90
2030;DHT22;1020;48.854;8.830;2022-09-27T08:44:42;9.10;99.90
2030;DHT22;1020;48.854;8.830;2022-09-27T08:47:15;9.20;99.90
2030;DHT22;1020;48.854;8.830;2022-09-27T08:49:46;9.00;99.90
2030;DHT22;1020;48.854;8.830;2022-09-27T08:52:17;9.00;99.90
2030;DHT22;1020;48.854;8.830;2022-09-27T08:54:48;8.90;99.90
2030;DHT22;1020;48.854;8.830;2022-09-27T08:57:16;8.80;99.90
2030;DHT22;1020;48.854;8.830;2022-09-27T08:59:46;8.70;99.90
2030;DHT22;1020;48.854;8.830;2022-09-27T09:02:17;8.60;99.90
2030;DHT22;1020;48.854;8.830;2022-09-27T09:04:46;8.80;99.90
2030;DHT22;1020;48.854;8.830;2022-09-27T09:07:24;9.00;99.90
2030;DHT22;1020;48.854;8.830;2022-09-27T09:09:58;9.30;99.90
2030;DHT22;1020;48.854;8.830;2022-09-27T09:12:36;10.10;99.90
2030;DHT22;1020;48.854;8.830;2022-09-27T09:15:28;10.80;10.50
2030;DHT22;1020;48.854;8.830;2022-09-27T09:18:14;11.10;1.00
2030;DHT22;1020;48.854;8.830;2022-09-27T09:20:54;11.60;1.00
2030;DHT22;1020;48.854;8.830;2022-09-27T09:23:57;12.20;1.00
2030;DHT22;1020;48.854;8.830;2022-09-27T09:26:36;12.00;1.00
2030;DHT22;1020;48.854;8.830;2022-09-27T09:29:13;11.50;1.00
2030;DHT22;1020;48.854;8.830;2022-09-27T09:31:47;11.10;1.00
2030;DHT22;1020;48.854;8.830;2022-09-27T09:34:20;11.30;1.00
2030;DHT22;1020;48.854;8.830;2022-09-27T09:36:52;12.90;1.00
2030;DHT22;1020;48.854;8.830;2022-09-27T09:39:24;11.00;1.00
2030;DHT22;1020;48.854;8.830;2022-09-27T09:42:07;11.60;1.00
2030;DHT22;1020;48.854;8.830;2022-09-27T09:44:42;14.00;1.00
2030;DHT22;1020;48.854;8.830;2022-09-27T09:47:26;12.10;1.00
2030;DHT22;1020;48.854;8.830;2022-09-27T09:49:57;12.30;1.00
2030;DHT22;1020;48.854;8.830;2022-09-27T09:52:33;12.80;99.90
2030;DHT22;1020;48.854;8.830;2022-09-27T09:55:06;12.90;99.90
2030;DHT22;1020;48.854;8.830;2022-09-27T09:57:45;12.70;99.90
2030;DHT22;1020;48.854;8.830;2022-09-27T10:00:17;12.10;99.90
2030;DHT22;1020;48.854;8.830;2022-09-27T10:02:46;11.80;99.90
2030;DHT22;1020;48.854;8.830;2022-09-27T10:05:15;11.50;1.00
2030;DHT22;1020;48.854;8.830;2022-09-27T10:07:43;11.70;1.00
2030;DHT22;1020;48.854;8.830;2022-09-27T10:10:13;12.10;99.90
2030;DHT22;1020;48.854;8.830;2022-09-27T10:12:41;11.80;99.90
2030;DHT22;1020;48.854;8.830;2022-09-27T10:15:13;11.40;99.90
2030;DHT22;1020;48.854;8.830;2022-09-27T10:17:44;11.10;1.00
2030;DHT22;1020;48.854;8.830;2022-09-27T10:20:22;11.00;1.00
2030;DHT22;1020;48.854;8.830;2022-09-27T10:22:52;11.00;1.00
2030;DHT22;1020;48.854;8.830;2022-09-27T10:25:21;11.20;1.00
2030;DHT22;1020;48.854;8.830;2022-09-27T10:27:51;11.30;1.00
2030;DHT22;1020;48.854;8.830;2022-09-27T10:30:25;11.20;1.00
2030;DHT22;1020;48.854;8.830;2022-09-27T10:32:55;11.10;1.00
2030;DHT22;1020;48.854;8.830;2022-09-27T10:35:34;10.80;1.00
2030;DHT22;1020;48.854;8.830;2022-09-27T10:38:21;10.70;1.00
2030;DHT22;1020;48.854;8.830;2022-09-27T10:40:49;10.70;1.00
2030;DHT22;1020;48.854;8.830;2022-09-27T10:43:29;10.60;14.70
2030;DHT22;1020;48.854;8.830;2022-09-27T10:46:23;10.40;26.70
2030;DHT22;1020;48.854;8.830;2022-09-27T10:49:09;10.40;34.40
2030;DHT22;1020;48.854;8.830;2022-09-27T10:51:37;10.20;30.70
2030;DHT22;1020;48.854;8.830;2022-09-27T10:54:04;10.10;88.70
2030;DHT22;1020;48.854;8.830;2022-09-27T10:56:33;10.10;99.90
2030;DHT22;1020;48.854;8.830;2022-09-27T10:59:01;10.20;99.90
2030;DHT22;1020;48.854;8.830;2022-09-27T11:01:38;10.30;99.90
2030;DHT22;1020;48.854;8.830;2022-09-27T11:04:06;10.30;90.30
2030;DHT22;1020;48.854;8.830;2022-09-27T11:06:41;10.30;99.90
2030;DHT22;1020;48.854;8.830;2022-09-27T11:09:20;10.40;76.20
2030;DHT22;1020;48.854;8.830;2022-09-27T11:11:52;10.50;99.90
2030;DHT22;1020;48.854;8.830;2022-09-27T11:14:32;10.40;70.40
2030;DHT22;1020;48.854;8.830;2022-09-27T11:17:08;10.30;99.40
2030;DHT22;1020;48.854;8.830;2022-09-27T11:19:57;10.10;69.30
2030;DHT22;1020;48.854;8.830;2022-09-27T11:22:40;9.70;99.90
2030;DHT22;1020;48.854;8.830;2022-09-27T11:25:18;9.70;99.90
2030;DHT22;1020;48.854;8.830;2022-09-27T11:27:56;9.70;99.90
2030;DHT22;1020;48.854;8.830;2022-09-27T11:30:32;9.20;99.90
2030;DHT22;1020;48.854;8.830;2022-09-27T11:33:27;8.20;99.90
2030;DHT22;1020;48.854;8.830;2022-09-27T11:36:03;7.60;99.90
2030;DHT22;1020;48.854;8.830;2022-09-27T11:38:32;8.10;99.90
2030;DHT22;1020;48.854;8.830;2022-09-27T11:41:13;6.90;99.90
2030;DHT22;1020;48.854;8.830;2022-09-27T11:44:01;6.90;99.90
2030;DHT22;1020;48.854;8.830;2022-09-27T11:46:34;7.00;99.90
2030;DHT22;1020;48.854;8.830;2022-09-27T11:49:19;7.30;99.90
2030;DHT22;1020;48.854;8.830;2022-09-27T11:55:02;7.50;99.90
2030;DHT22;1020;48.854;8.830;2022-09-27T11:57:37;7.40;99.90
2030;DHT22;1020;48.854;8.830;2022-09-27T12:00:18;7.40;99.90
2030;DHT22;1020;48.854;8.830;2022-09-27T12:06:04;7.30;99.90
2030;DHT22;1020;48.854;8.830;2022-09-27T12:08:41;7.30;99.90
2030;DHT22;1020;48.854;8.830;2022-09-27T12:11:13;7.30;99.90
2030;DHT22;1020;48.854;8.830;2022-09-27T12:13:46;7.40;99.90
2030;DHT22;1020;48.854;8.830;2022-09-27T12:16:15;7.30;99.90
2030;DHT22;1020;48.854;8.830;2022-09-27T12:18:45;7.30;99.90
2030;DHT22;1020;48.854;8.830;2022-09-27T12:21:14;7.40;99.90
2030;DHT22;1020;48.854;8.830;2022-09-27T12:23:44;7.40;99.90
2030;DHT22;1020;48.854;8.830;2022-09-27T12:26:13;7.40;99.90
2030;DHT22;1020;48.854;8.830;2022-09-27T12:28:47;7.30;99.90
2030;DHT22;1020;48.854;8.830;2022-09-27T12:31:19;7.40;99.90
2030;DHT22;1020;48.854;8.830;2022-09-27T12:33:56;7.30;99.90
2030;DHT22;1020;48.854;8.830;2022-09-27T12:36:31;7.40;99.90
2030;DHT22;1020;48.854;8.830;2022-09-27T12:39:04;7.40;99.90
2030;DHT22;1020;48.854;8.830;2022-09-27T12:41:38;7.50;99.90
2030;DHT22;1020;48.854;8.830;2022-09-27T12:44:08;7.60;99.90
2030;DHT22;1020;48.854;8.830;2022-09-27T12:46:43;7.60;99.90
2030;DHT22;1020;48.854;8.830;2022-09-27T12:49:20;7.60;99.90
2030;DHT22;1020;48.854;8.830;2022-09-27T12:51:55;7.60;99.90
2030;DHT22;1020;48.854;8.830;2022-09-27T12:54:36;7.60;99.90
2030;DHT22;1020;48.854;8.830;2022-09-27T12:57:16;7.50;99.90
2030;DHT22;1020;48.854;8.830;2022-09-27T12:59:53;7.60;99.90
2030;DHT22;1020;48.854;8.830;2022-09-27T13:02:53;7.60;99.90
2030;DHT22;1020;48.854;8.830;2022-09-27T13:05:50;7.60;99.90
2030;DHT22;1020;48.854;8.830;2022-09-27T13:08:40;7.60;99.90
2030;DHT22;1020;48.854;8.830;2022-09-27T13:11:15;7.70;99.90
2030;DHT22;1020;48.854;8.830;2022-09-27T13:13:48;7.70;99.90
2030;DHT22;1020;48.854;8.830;2022-09-27T13:16:15;7.70;99.90
2030;DHT22;1020;48.854;8.830;2022-09-27T13:18:53;7.70;99.90
2030;DHT22;1020;48.854;8.830;2022-09-27T13:21:58;7.80;99.90
2030;DHT22;1020;48.854;8.830;2022-09-27T13:24:43;7.80;99.90
2030;DHT22;1020;48.854;8.830;2022-09-27T13:27:38;7.80;99.90
2030;DHT22;1020;48.854;8.830;2022-09-27T13:33:28;7.60;99.90
2030;DHT22;1020;48.854;8.830;2022-09-27T13:36:15;7.70;99.90
2030;DHT22;1020;48.854;8.830;2022-09-27T13:38:55;7.80;99.90
2030;DHT22;1020;48.854;8.830;2022-09-27T13:41:27;7.70;99.90
2030;DHT22;1020;48.854;8.830;2022-09-27T13:44:02;7.70;99.90
2030;DHT22;1020;48.854;8.830;2022-09-27T13:46:33;7.70;99.90
2030;DHT22;1020;48.854;8.830;2022-09-27T13:49:03;7.80;99.90
2030;DHT22;1020;48.854;8.830;2022-09-27T13:51:38;7.90;99.90
2030;DHT22;1020;48.854;8.830;2022-09-27T13:54:36;7.90;99.90
2030;DHT22;1020;48.854;8.830;2022-09-27T13:57:04;7.90;99.90
2030;DHT22;1020;48.854;8.830;2022-09-27T13:59:53;7.90;99.90
2030;DHT22;1020;48.854;8.830;2022-09-27T14:02:25;7.90;99.90
2030;DHT22;1020;48.854;8.830;2022-09-27T14:04:53;8.00;99.90
2030;DHT22;1020;48.854;8.830;2022-09-27T14:07:23;8.00;99.90
2030;DHT22;1020;48.854;8.830;2022-09-27T14:09:55;8.10;99.90
2030;DHT22;1020;48.854;8.830;2022-09-27T14:12:28;8.40;99.90
2030;DHT22;1020;48.854;8.830;2022-09-27T14:14:58;8.60;99.90
2030;DHT22;1020;48.854;8.830;2022-09-27T14:17:25;8.70;99.90
2030;DHT22;1020;48.854;8.830;2022-09-27T14:19:52;8.60;99.90
2030;DHT22;1020;48.854;8.830;2022-09-27T14:22:21;8.60;99.90
2030;DHT22;1020;48.854;8.830;2022-09-27T14:24:50;8.50;99.90
2030;DHT22;1020;48.854;8.830;2022-09-27T14:27:19;8.70;99.90
2030;DHT22;1020;48.854;8.830;2022-09-27T14:29:48;8.70;99.90
2030;DHT22;1020;48.854;8.830;2022-09-27T14:32:19;8.90;99.90
2030;DHT22;1020;48.854;8.830;2022-09-27T14:34:46;8.80;99.90
2030;DHT22;1020;48.854;8.830;2022-09-27T14:37:27;8.80;99.90
2030;DHT22;1020;48.854;8.830;2022-09-27T14:40:05;8.80;99.90
2030;DHT22;1020;48.854;8.830;2022-09-27T14:42:35;8.80;99.90
2030;DHT22;1020;48.854;8.830;2022-09-27T14:45:11;9.20;99.90
2030;DHT22;1020;48.854;8.830;2022-09-27T14:47:44;9.50;99.90
2030;DHT22;1020;48.854;8.830;2022-09-27T14:50:22;9.90;99.90
2030;DHT22;1020;48.854;8.830;2022-09-27T14:52:50;9.90;99.90
2030;DHT22;1020;48.854;8.830;2022-09-27T14:55:21;9.90;99.90
2030;DHT22;1020;48.854;8.830;2022-09-27T14:57:51;9.80;99.90
2030;DHT22;1020;48.854;8.830;2022-09-27T15:00:21;9.70;99.90
2030;DHT22;1020;48.854;8.830;2022-09-27T15:02:49;9.60;99.90
2030;DHT22;1020;48.854;8.830;2022-09-27T15:05:21;9.60;99.90
2030;DHT22;1020;48.854;8.830;2022-09-27T15:07:48;9.80;99.90
2030;DHT22;1020;48.854;8.830;2022-09-27T15:10:17;9.80;99.90
2030;DHT22;1020;48.854;8.830;2022-09-27T15:12:47;9.80;99.90
2030;DHT22;1020;48.854;8.830;2022-09-27T15:15:20;9.60;99.90
2030;DHT22;1020;48.854;8.830;2022-09-27T15:17:48;9.70;99.90
2030;DHT22;1020;48.854;8.830;2022-09-27T15:20:21;9.80;99.90
2030;DHT22;1020;48.854;8.830;2022-09-27T15:22:49;10.20;99.90
2030;DHT22;1020;48.854;8.830;2022-09-27T15:25:20;10.30;99.90
2030;DHT22;1020;48.854;8.830;2022-09-27T15:27:50;10.20;99.90
2030;DHT22;1020;48.854;8.830;2022-09-27T15:30:24;9.90;99.90
2030;DHT22;1020;48.854;8.830;2022-09-27T15:32:53;9.60;57.30
2030;DHT22;1020;48.854;8.830;2022-09-27T15:35:24;9.50;99.90
2030;DHT22;1020;48.854;8.830;2022-09-27T15:37:51;9.50;99.90
2030;DHT22;1020;48.854;8.830;2022-09-27T15:41:06;9.40;99.90
2030;DHT22;1020;48.854;8.830;2022-09-27T15:43:36;9.20;99.90
2030;DHT22;1020;48.854;8.830;2022-09-27T15:46:25;9.20;99.90
2030;DHT22;1020;48.854;8.830;2022-09-27T15:52:03;9.10;99.90
2030;DHT22;1020;48.854;8.830;2022-09-27T15:54:32;9.30;99.90
2030;DHT22;1020;48.854;8.830;2022-09-27T15:57:02;9.60;99.90
2030;DHT22;1020;48.854;8.830;2022-09-27T15:59:32;9.90;99.90
2030;DHT22;1020;48.854;8.830;2022-09-27T16:02:02;9.90;99.90
2030;DHT22;1020;48.854;8.830;2022-09-27T16:04:30;9.90;72.80
2030;DHT22;1020;48.854;8.830;2022-09-27T16:06:59;9.90;67.60
2030;DHT22;1020;48.854;8.830;2022-09-27T16:09:26;9.90;96.80
2030;DHT22;1020;48.854;8.830;2022-09-27T16:11:53;9.80;77.70
2030;DHT22;1020;48.854;8.830;2022-09-27T16:14:20;9.70;68.50
2030;DHT22;1020;48.854;8.830;2022-09-27T16:16:48;9.70;89.40
2030;DHT22;1020;48.854;8.830;2022-09-27T16:19:17;12.40;75.90
2030;DHT22;1020;48.854;8.830;2022-09-27T16:21:44;9.40;99.90
2030;DHT22;1020;48.854;8.830;2022-09-27T16:24:13;9.20;99.90
2030;DHT22;1020;48.854;8.830;2022-09-27T16:26:40;9.10;99.90
2030;DHT22;1020;48.854;8.830;2022-09-27T16:29:09;9.10;99.90
2030;DHT22;1020;48.854;8.830;2022-09-27T16:31:37;10.60;99.90
2030;DHT22;1020;48.854;8.830;2022-09-27T16:34:04;9.00;99.90
2030;DHT22;1020;48.854;8.830;2022-09-27T16:36:32;8.90;99.90
2030;DHT22;1020;48.854;8.830;2022-09-27T16:39:00;8.70;99.90
2030;DHT22;1020;48.854;8.830;2022-09-27T16:41:29;8.70;99.90
2030;DHT22;1020;48.854;8.830;2022-09-27T16:43:56;8.70;99.90
2030;DHT22;1020;48.854;8.830;2022-09-27T16:46:23;8.70;99.90
2030;DHT22;1020;48.854;8.830;2022-09-27T16:48:50;8.70;99.90
2030;DHT22;1020;48.854;8.830;2022-09-27T16:51:19;8.60;99.90
2030;DHT22;1020;48.854;8.830;2022-09-27T16:54:06;8.50;99.90
2030;DHT22;1020;48.854;8.830;2022-09-27T16:56:34;8.40;99.90
2030;DHT22;1020;48.854;8.830;2022-09-27T16:59:02;8.40;99.90
2030;DHT22;1020;48.854;8.830;2022-09-27T17:01:41;8.30;99.90